createdAt,value
2018-08-04T00:00:13.292Z,20.59
2018-08-04T00:01:13.279Z,20.68
2018-08-04T00:02:13.261Z,20.74
2018-08-04T00:03:13.242Z,20.73
2018-08-04T00:04:13.222Z,20.78
2018-08-04T00:05:13.238Z,20.93
2018-08-04T00:06:13.293Z,20.89
2018-08-04T00:07:13.192Z,20.89
2018-08-04T00:08:13.227Z,20.92
2018-08-04T00:09:13.202Z,20.93
2018-08-04T00:10:13.150Z,20.95
2018-08-04T00:11:13.205Z,21.03
2018-08-04T00:12:13.125Z,21.07
2018-08-04T00:13:13.115Z,20.95
2018-08-04T00:14:13.107Z,20.92
2018-08-04T00:15:13.125Z,20.96
2018-08-04T00:16:13.132Z,21.05
2018-08-04T00:17:13.086Z,20.92
2018-08-04T00:18:13.055Z,20.90
2018-08-04T00:19:13.058Z,20.96
2018-08-04T00:20:13.037Z,20.89
2018-08-04T00:21:13.084Z,20.88
2018-08-04T00:22:13.030Z,20.89
2018-08-04T00:23:12.996Z,20.88
2018-08-04T00:24:12.999Z,20.90
2018-08-04T00:25:12.987Z,20.89
2018-08-04T00:26:13.008Z,20.90
2018-08-04T00:27:12.951Z,20.88
2018-08-04T00:28:12.935Z,20.89
2018-08-04T00:29:12.954Z,20.88
2018-08-04T00:30:12.940Z,20.90
2018-08-04T00:31:12.960Z,20.85
2018-08-04T00:32:12.899Z,20.78
2018-08-04T00:33:12.898Z,20.82
2018-08-04T00:34:12.906Z,20.78
2018-08-04T00:35:12.880Z,20.77
2018-08-04T00:36:12.930Z,20.82
2018-08-04T00:37:12.860Z,20.74
2018-08-04T00:38:12.860Z,20.83
2018-08-04T00:39:12.832Z,20.82
2018-08-04T00:40:12.828Z,20.82
2018-08-04T00:41:12.827Z,20.74
2018-08-04T00:42:12.802Z,20.82
2018-08-04T00:43:12.788Z,20.82
2018-08-04T00:44:12.788Z,20.86
2018-08-04T00:45:12.828Z,20.77
2018-08-04T00:46:12.751Z,20.73
2018-08-04T00:47:12.757Z,20.71
2018-08-04T00:48:12.720Z,20.77
2018-08-04T00:49:12.734Z,20.77
2018-08-04T00:50:12.744Z,20.68
2018-08-04T00:51:12.682Z,20.66
2018-08-04T00:52:12.680Z,20.70
2018-08-04T00:53:12.722Z,20.64
2018-08-04T00:54:12.662Z,20.67
2018-08-04T00:55:12.635Z,20.55
2018-08-04T00:56:12.634Z,20.56
2018-08-04T00:57:12.624Z,20.59
2018-08-04T00:58:12.634Z,20.60
2018-08-04T00:59:12.598Z,20.58
2018-08-04T01:00:12.600Z,20.59
2018-08-04T01:01:12.625Z,20.58
2018-08-04T01:02:12.550Z,20.59
2018-08-04T01:03:12.572Z,20.63
2018-08-04T01:04:12.561Z,20.66
2018-08-04T01:05:12.528Z,20.59
2018-08-04T01:06:12.584Z,20.73
2018-08-04T01:07:12.546Z,20.75
2018-08-04T01:08:12.490Z,20.88
2018-08-04T01:09:12.529Z,20.78
2018-08-04T01:10:12.474Z,20.86
2018-08-04T01:11:12.494Z,20.89
2018-08-04T01:12:12.436Z,20.86
2018-08-04T01:13:12.462Z,20.89
2018-08-04T01:14:12.439Z,20.93
2018-08-04T01:15:12.439Z,20.93
2018-08-04T01:16:12.412Z,20.88
2018-08-04T01:17:12.415Z,20.88
2018-08-04T01:18:12.409Z,21.01
2018-08-04T01:19:12.385Z,21.04
2018-08-04T01:20:12.383Z,21.13
2018-08-04T01:21:12.356Z,21.14
2018-08-04T01:22:12.388Z,21.08
2018-08-04T01:23:12.328Z,21.05
2018-08-04T01:24:12.304Z,21.05
2018-08-04T01:25:12.311Z,20.96
2018-08-04T01:26:12.290Z,20.92
2018-08-04T01:27:12.314Z,20.90
2018-08-04T01:28:12.273Z,20.90
2018-08-04T01:29:12.262Z,20.92
2018-08-04T01:30:12.284Z,20.90
2018-08-04T01:31:12.239Z,20.96
2018-08-04T01:32:12.242Z,20.90
2018-08-04T01:33:12.293Z,20.92
2018-08-04T01:34:12.243Z,20.80
2018-08-04T01:35:12.223Z,20.78
2018-08-04T01:36:12.232Z,20.86
2018-08-04T01:37:12.174Z,20.80
2018-08-04T01:38:12.169Z,20.73
2018-08-04T01:39:12.190Z,20.70
2018-08-04T01:40:12.205Z,20.73
2018-08-04T01:41:12.122Z,20.80
2018-08-04T01:42:12.139Z,20.71
2018-08-04T01:43:12.109Z,20.73
2018-08-04T01:44:12.122Z,20.60
2018-08-04T01:45:12.082Z,20.75
2018-08-04T01:46:12.121Z,20.73
2018-08-04T01:47:12.073Z,20.78
2018-08-04T01:48:12.051Z,20.70
2018-08-04T01:49:12.037Z,20.68
2018-08-04T01:50:12.069Z,20.70
2018-08-04T01:51:12.049Z,20.83
2018-08-04T01:52:12.004Z,20.80
2018-08-04T01:53:11.984Z,20.85
2018-08-04T01:54:11.984Z,20.92
2018-08-04T01:55:11.945Z,20.88
2018-08-04T01:56:11.971Z,20.89
2018-08-04T01:57:11.930Z,20.88
2018-08-04T01:58:11.925Z,20.98
2018-08-04T01:59:11.954Z,21.04
2018-08-04T02:00:11.886Z,20.96
2018-08-04T02:01:11.925Z,21.04
2018-08-04T02:02:11.870Z,21.01
2018-08-04T02:03:11.904Z,21.04
2018-08-04T02:04:11.864Z,21.00
2018-08-04T02:05:11.893Z,21.03
2018-08-04T02:06:11.869Z,21.00
2018-08-04T02:07:11.899Z,21.04
2018-08-04T02:08:11.820Z,21.00
2018-08-04T02:09:11.786Z,21.01
2018-08-04T02:10:11.810Z,21.10
2018-08-04T02:11:11.810Z,21.08
2018-08-04T02:12:11.770Z,21.11
2018-08-04T02:13:11.775Z,21.17
2018-08-04T02:14:11.750Z,21.19
2018-08-04T02:15:11.729Z,21.11
2018-08-04T02:16:11.803Z,21.22
2018-08-04T02:17:11.740Z,21.20
2018-08-04T02:18:11.693Z,21.22
2018-08-04T02:19:11.718Z,21.25
2018-08-04T02:20:11.696Z,21.25
2018-08-04T02:21:11.705Z,21.23
2018-08-04T02:22:11.678Z,21.26
2018-08-04T02:23:11.669Z,21.30
2018-08-04T02:24:11.726Z,21.30
2018-08-04T02:25:11.619Z,21.29
2018-08-04T02:26:11.663Z,21.28
2018-08-04T02:27:11.613Z,21.28
2018-08-04T02:28:11.586Z,21.33
2018-08-04T02:29:11.610Z,21.29
2018-08-04T02:30:11.566Z,21.25
2018-08-04T02:31:11.617Z,21.29
2018-08-04T02:32:11.544Z,21.30
2018-08-04T02:33:11.560Z,21.35
2018-08-04T02:34:11.527Z,21.30
2018-08-04T02:35:11.494Z,21.40
2018-08-04T02:36:11.555Z,21.35
2018-08-04T02:37:11.482Z,21.35
2018-08-04T02:38:11.517Z,21.40
2018-08-04T02:39:11.466Z,21.40
2018-08-04T02:40:11.456Z,21.40
2018-08-04T02:41:11.481Z,21.41
2018-08-04T02:42:11.466Z,21.38
2018-08-04T02:43:11.430Z,21.41
2018-08-04T02:44:11.434Z,21.43
2018-08-04T02:45:11.394Z,21.37
2018-08-04T02:46:11.416Z,21.45
2018-08-04T02:47:11.372Z,21.47
2018-08-04T02:48:11.412Z,21.48
2018-08-04T02:49:11.348Z,21.40
2018-08-04T02:50:11.355Z,21.45
2018-08-04T02:51:11.342Z,21.48
2018-08-04T02:52:11.334Z,21.50
2018-08-04T02:53:11.348Z,21.45
2018-08-04T02:54:11.310Z,21.47
2018-08-04T02:55:11.286Z,21.47
2018-08-04T02:56:11.252Z,21.41
2018-08-04T02:57:11.262Z,21.44
2018-08-04T02:58:11.268Z,21.38
2018-08-04T02:59:11.263Z,21.40
2018-08-04T03:00:11.222Z,21.41
2018-08-04T03:01:11.235Z,21.41
2018-08-04T03:02:11.192Z,21.29
2018-08-04T03:03:11.184Z,21.37
2018-08-04T03:04:11.199Z,21.26
2018-08-04T03:05:11.190Z,21.26
2018-08-04T03:06:11.154Z,21.28
2018-08-04T03:07:11.138Z,21.19
2018-08-04T03:08:11.152Z,21.23
2018-08-04T03:09:11.174Z,21.17
2018-08-04T03:10:11.130Z,21.25
2018-08-04T03:11:11.097Z,21.20
2018-08-04T03:12:11.066Z,21.19
2018-08-04T03:13:11.103Z,21.19
2018-08-04T03:14:11.091Z,21.17
2018-08-04T03:15:11.051Z,21.17
2018-08-04T03:16:11.041Z,21.20
2018-08-04T03:17:11.041Z,21.19
2018-08-04T03:18:11.038Z,21.14
2018-08-04T03:19:11.062Z,21.11
2018-08-04T03:20:10.982Z,21.11
2018-08-04T03:21:10.991Z,21.10
2018-08-04T03:22:10.982Z,21.11
2018-08-04T03:23:10.948Z,21.13
2018-08-04T03:24:10.988Z,21.14
2018-08-04T03:25:10.956Z,21.04
2018-08-04T03:26:10.938Z,21.03
2018-08-04T03:27:10.958Z,21.04
2018-08-04T03:28:10.893Z,20.90
2018-08-04T03:29:10.928Z,20.90
2018-08-04T03:30:10.868Z,20.88
2018-08-04T03:31:10.856Z,20.86
2018-08-04T03:32:10.864Z,20.86
2018-08-04T03:33:10.836Z,20.85
2018-08-04T03:34:10.880Z,20.85
2018-08-04T03:35:10.820Z,20.82
2018-08-04T03:36:10.814Z,20.74
2018-08-04T03:37:10.824Z,20.74
2018-08-04T03:38:10.778Z,20.74
2018-08-04T03:39:10.873Z,20.73
2018-08-04T03:40:10.778Z,20.77
2018-08-04T03:41:10.754Z,20.75
2018-08-04T03:42:10.766Z,20.68
2018-08-04T03:43:10.729Z,20.71
2018-08-04T03:44:10.756Z,20.60
2018-08-04T03:45:10.726Z,20.70
2018-08-04T03:46:10.736Z,20.66
2018-08-04T03:47:10.735Z,20.63
2018-08-04T03:48:10.726Z,20.71
2018-08-04T03:49:10.680Z,20.68
2018-08-04T03:50:10.656Z,20.67
2018-08-04T03:51:10.638Z,20.70
2018-08-04T03:52:10.673Z,20.58
2018-08-04T03:53:10.698Z,20.70
2018-08-04T03:54:10.604Z,20.64
2018-08-04T03:55:10.592Z,20.75
2018-08-04T03:56:10.592Z,20.73
2018-08-04T03:57:10.579Z,20.75
2018-08-04T03:58:10.581Z,20.77
2018-08-04T03:59:10.543Z,20.71
2018-08-04T04:00:10.532Z,20.73
2018-08-04T04:01:10.516Z,20.73
2018-08-04T04:02:10.545Z,20.88
2018-08-04T04:03:10.502Z,20.83
2018-08-04T04:04:10.528Z,20.78
2018-08-04T04:05:10.493Z,20.86
2018-08-04T04:06:10.454Z,20.92
2018-08-04T04:07:10.488Z,20.86
2018-08-04T04:08:10.433Z,21.04
2018-08-04T04:09:10.421Z,21.04
2018-08-04T04:10:10.422Z,21.01
2018-08-04T04:11:10.405Z,21.05
2018-08-04T04:12:10.443Z,21.10
2018-08-04T04:13:10.388Z,21.08
2018-08-04T04:14:10.453Z,21.11
2018-08-04T04:15:10.358Z,21.17
2018-08-04T04:16:10.401Z,21.17
2018-08-04T04:17:10.363Z,21.23
2018-08-04T04:18:10.334Z,21.23
2018-08-04T04:19:10.312Z,21.29
2018-08-04T04:20:10.363Z,21.30
2018-08-04T04:21:10.295Z,21.26
2018-08-04T04:22:10.288Z,21.35
2018-08-04T04:23:10.281Z,21.32
2018-08-04T04:24:10.266Z,21.40
2018-08-04T04:25:10.315Z,21.41
2018-08-04T04:26:10.235Z,21.43
2018-08-04T04:27:10.249Z,21.44
2018-08-04T04:28:10.233Z,21.44
2018-08-04T04:29:10.208Z,21.44
2018-08-04T04:30:10.246Z,21.51
2018-08-04T04:31:10.184Z,21.65
2018-08-04T04:32:10.178Z,21.50
2018-08-04T04:33:10.188Z,21.63
2018-08-04T04:34:10.166Z,21.65
2018-08-04T04:35:10.190Z,21.74
2018-08-04T04:36:10.130Z,21.68
2018-08-04T04:37:10.128Z,21.72
2018-08-04T04:38:10.155Z,21.72
2018-08-04T04:39:10.101Z,21.77
2018-08-04T04:40:10.078Z,21.80
2018-08-04T04:41:10.092Z,21.89
2018-08-04T04:42:10.062Z,21.81
2018-08-04T04:43:10.094Z,21.88
2018-08-04T04:44:10.063Z,21.88
2018-08-04T04:45:10.058Z,21.88
2018-08-04T04:46:10.002Z,21.92
2018-08-04T04:47:10.058Z,21.91
2018-08-04T04:48:09.986Z,22.01
2018-08-04T04:49:10.006Z,22.07
2018-08-04T04:50:09.982Z,21.97
2018-08-04T04:51:09.996Z,22.10
2018-08-04T04:52:10.023Z,22.19
2018-08-04T04:53:09.947Z,22.21
2018-08-04T04:54:09.960Z,22.30
2018-08-04T04:55:09.906Z,22.33
2018-08-04T04:56:09.894Z,22.49
2018-08-04T04:57:09.882Z,22.49
2018-08-04T04:58:09.866Z,22.58
2018-08-04T04:59:09.904Z,22.68
2018-08-04T05:00:09.864Z,22.78
2018-08-04T05:01:09.842Z,22.74
2018-08-04T05:02:09.851Z,22.83
2018-08-04T05:03:09.834Z,22.86
2018-08-04T05:04:09.862Z,22.88
2018-08-04T05:05:09.804Z,23.07
2018-08-04T05:06:09.803Z,23.06
2018-08-04T05:07:09.780Z,23.13
2018-08-04T05:08:09.801Z,23.16
2018-08-04T05:09:09.755Z,23.28
2018-08-04T05:10:09.755Z,23.40
2018-08-04T05:11:09.727Z,23.37
2018-08-04T05:12:09.707Z,23.42
2018-08-04T05:13:09.765Z,23.45
2018-08-04T05:14:09.693Z,23.39
2018-08-04T05:15:09.688Z,23.52
2018-08-04T05:16:09.672Z,23.55
2018-08-04T05:17:09.707Z,23.58
2018-08-04T05:18:09.657Z,23.63
2018-08-04T05:19:09.670Z,23.69
2018-08-04T05:20:09.629Z,23.70
2018-08-04T05:21:09.626Z,23.81
2018-08-04T05:22:09.613Z,23.84
2018-08-04T05:23:09.609Z,23.91
2018-08-04T05:24:09.617Z,23.86
2018-08-04T05:25:09.569Z,23.89
2018-08-04T05:26:09.560Z,23.94
2018-08-04T05:27:09.553Z,23.85
2018-08-04T05:28:09.542Z,23.91
2018-08-04T05:29:09.578Z,23.94
2018-08-04T05:30:09.512Z,23.94
2018-08-04T05:31:09.530Z,23.96
2018-08-04T05:32:09.482Z,23.91
2018-08-04T05:33:09.470Z,23.99
2018-08-04T05:34:09.462Z,23.94
2018-08-04T05:35:09.450Z,23.99
2018-08-04T05:36:09.474Z,24.03
2018-08-04T05:37:09.430Z,23.89
2018-08-04T05:38:09.456Z,24.01
2018-08-04T05:39:09.402Z,23.95
2018-08-04T05:40:09.398Z,24.03
2018-08-04T05:41:09.392Z,24.07
2018-08-04T05:42:09.388Z,24.04
2018-08-04T05:43:09.440Z,24.06
2018-08-04T05:44:09.348Z,24.06
2018-08-04T05:45:09.344Z,24.09
2018-08-04T05:46:09.326Z,24.07
2018-08-04T05:47:09.354Z,24.10
2018-08-04T05:48:09.316Z,24.10
2018-08-04T05:49:09.304Z,24.19
2018-08-04T05:50:09.286Z,24.07
2018-08-04T05:51:09.274Z,24.21
2018-08-04T05:52:09.338Z,24.24
2018-08-04T05:53:09.290Z,24.31
2018-08-04T05:54:09.269Z,24.34
2018-08-04T05:55:09.257Z,24.26
2018-08-04T05:56:09.208Z,24.25
2018-08-04T05:57:09.268Z,24.22
2018-08-04T05:58:09.196Z,24.19
2018-08-04T05:59:09.222Z,24.21
2018-08-04T06:00:09.159Z,24.26
2018-08-04T06:01:09.156Z,24.18
2018-08-04T06:02:09.146Z,24.25
2018-08-04T06:03:09.216Z,24.18
2018-08-04T06:04:09.132Z,24.21
2018-08-04T06:05:09.117Z,24.24
2018-08-04T06:06:09.118Z,24.06
2018-08-04T06:07:09.118Z,24.13
2018-08-04T06:08:09.158Z,24.10
2018-08-04T06:09:09.089Z,24.19
2018-08-04T06:10:09.061Z,24.16
2018-08-04T06:11:09.058Z,24.19
2018-08-04T06:12:09.063Z,24.14
2018-08-04T06:13:09.078Z,24.18
2018-08-04T06:14:09.021Z,24.19
2018-08-04T06:15:09.014Z,24.21
2018-08-04T06:16:09.001Z,24.26
2018-08-04T06:17:08.987Z,24.21
2018-08-04T06:18:09.035Z,24.38
2018-08-04T06:19:08.984Z,24.28
2018-08-04T06:20:08.963Z,24.26
2018-08-04T06:21:08.930Z,24.32
2018-08-04T06:22:09.040Z,24.34
2018-08-04T06:23:08.950Z,24.36
2018-08-04T06:24:08.906Z,24.38
2018-08-04T06:25:08.900Z,24.40
2018-08-04T06:26:08.897Z,24.41
2018-08-04T06:27:08.874Z,24.44
2018-08-04T06:28:08.926Z,24.51
2018-08-04T06:29:08.903Z,24.47
2018-08-04T06:30:08.844Z,24.61
2018-08-04T06:31:08.843Z,24.63
2018-08-04T06:32:08.838Z,24.62
2018-08-04T06:33:08.851Z,24.62
2018-08-04T06:34:08.846Z,24.63
2018-08-04T06:35:08.795Z,24.59
2018-08-04T06:36:08.762Z,24.62
2018-08-04T06:37:08.778Z,24.56
2018-08-04T06:38:08.758Z,24.44
2018-08-04T06:39:08.772Z,24.46
2018-08-04T06:40:08.760Z,24.46
2018-08-04T06:41:08.760Z,24.29
2018-08-04T06:42:08.706Z,24.37
2018-08-04T06:43:08.713Z,24.28
2018-08-04T06:44:08.806Z,24.21
2018-08-04T06:45:08.678Z,24.28
2018-08-04T06:46:08.662Z,24.19
2018-08-04T06:47:08.758Z,24.18
2018-08-04T06:48:08.652Z,24.16
2018-08-04T06:49:08.666Z,24.11
2018-08-04T06:50:08.620Z,24.18
2018-08-04T06:51:08.628Z,24.09
2018-08-04T06:52:08.646Z,24.18
2018-08-04T06:53:08.656Z,24.16
2018-08-04T06:54:08.626Z,24.18
2018-08-04T06:55:08.594Z,24.19
2018-08-04T06:56:08.576Z,24.25
2018-08-04T06:57:08.894Z,24.18
2018-08-04T06:58:08.550Z,24.25
2018-08-04T06:59:08.564Z,24.24
2018-08-04T07:00:08.571Z,24.28
2018-08-04T07:01:08.527Z,24.40
2018-08-04T07:02:08.549Z,24.50
2018-08-04T07:03:08.522Z,24.68
2018-08-04T07:04:08.554Z,25.03
2018-08-04T07:05:08.472Z,25.18
2018-08-04T07:06:08.508Z,25.41
2018-08-04T07:07:08.484Z,25.58
2018-08-04T07:08:08.439Z,25.77
2018-08-04T07:09:08.418Z,25.85
2018-08-04T07:10:08.420Z,25.95
2018-08-04T07:11:08.448Z,26.10
2018-08-04T07:12:08.409Z,26.24
2018-08-04T07:13:08.355Z,26.33
2018-08-04T07:14:08.344Z,26.31
2018-08-04T07:15:08.326Z,26.33
2018-08-04T07:16:08.354Z,26.48
2018-08-04T07:17:08.309Z,26.70
2018-08-04T07:18:08.306Z,26.78
2018-08-04T07:19:08.320Z,26.76
2018-08-04T07:20:08.282Z,26.61
2018-08-04T07:21:08.259Z,26.59
2018-08-04T07:22:08.250Z,26.59
2018-08-04T07:23:08.238Z,26.48
2018-08-04T07:24:08.286Z,26.51
2018-08-04T07:25:08.262Z,26.56
2018-08-04T07:26:08.210Z,26.67
2018-08-04T07:27:08.192Z,26.64
2018-08-04T07:28:08.192Z,26.81
2018-08-04T07:29:08.211Z,26.88
2018-08-04T07:30:08.190Z,26.93
2018-08-04T07:31:08.152Z,27.07
2018-08-04T07:32:08.139Z,27.38
2018-08-04T07:33:08.133Z,27.41
2018-08-04T07:34:08.148Z,27.72
2018-08-04T07:35:08.109Z,28.38
2018-08-04T07:36:08.104Z,28.87
2018-08-04T07:37:08.095Z,29.03
2018-08-04T07:38:08.088Z,28.87
2018-08-04T07:39:08.118Z,28.55
2018-08-04T07:40:08.066Z,28.46
2018-08-04T07:41:08.045Z,28.45
2018-08-04T07:42:08.087Z,28.27
2018-08-04T07:43:08.079Z,28.10
2018-08-04T07:44:08.014Z,28.00
2018-08-04T07:45:08.020Z,28.25
2018-08-04T07:46:07.999Z,28.68
2018-08-04T07:47:07.985Z,29.03
2018-08-04T07:48:08.010Z,29.22
2018-08-04T07:49:08.103Z,29.50
2018-08-04T07:50:07.989Z,29.57
2018-08-04T07:51:07.936Z,29.76
2018-08-04T07:52:07.939Z,30.20
2018-08-04T07:53:07.914Z,30.23
2018-08-04T07:54:07.942Z,30.61
2018-08-04T07:55:07.900Z,30.73
2018-08-04T07:56:07.886Z,30.88
2018-08-04T07:57:07.876Z,31.20
2018-08-04T07:58:07.868Z,31.02
2018-08-04T07:59:07.878Z,30.95
2018-08-04T08:00:07.838Z,31.04
2018-08-04T08:01:07.824Z,30.16
2018-08-04T08:02:07.857Z,30.46
2018-08-04T08:03:07.817Z,30.14
2018-08-04T08:04:07.836Z,29.80
2018-08-04T08:05:07.869Z,29.52
2018-08-04T08:06:07.776Z,30.18
2018-08-04T08:07:07.772Z,29.34
2018-08-04T08:08:07.769Z,28.94
2018-08-04T08:09:07.866Z,28.80
2018-08-04T08:10:07.724Z,28.47
2018-08-04T08:11:07.736Z,27.94
2018-08-04T08:12:07.695Z,27.94
2018-08-04T08:13:07.690Z,27.72
2018-08-04T08:14:07.720Z,27.57
2018-08-04T08:15:07.662Z,27.55
2018-08-04T08:16:07.663Z,27.03
2018-08-04T08:17:07.650Z,27.28
2018-08-04T08:18:07.636Z,27.33
2018-08-04T08:19:07.663Z,27.22
2018-08-04T08:20:07.647Z,26.98
2018-08-04T08:21:07.604Z,27.05
2018-08-04T08:22:07.592Z,27.10
2018-08-04T08:23:07.639Z,27.19
2018-08-04T08:24:07.568Z,27.33
2018-08-04T08:25:07.590Z,27.44
2018-08-04T08:26:07.553Z,27.60
2018-08-04T08:27:07.532Z,27.23
2018-08-04T08:28:07.533Z,27.19
2018-08-04T08:29:07.517Z,27.16
2018-08-04T08:30:07.548Z,27.22
2018-08-04T08:31:07.549Z,27.50
2018-08-04T08:32:07.492Z,27.52
2018-08-04T08:33:07.498Z,27.45
2018-08-04T08:34:07.467Z,27.35
2018-08-04T08:35:07.494Z,27.60
2018-08-04T08:36:07.444Z,27.72
2018-08-04T08:37:07.425Z,27.53
2018-08-04T08:38:07.417Z,27.60
2018-08-04T08:39:07.408Z,27.68
2018-08-04T08:40:07.452Z,27.63
2018-08-04T08:41:07.396Z,27.61
2018-08-04T08:42:07.380Z,27.40
2018-08-04T08:43:07.373Z,27.50
2018-08-04T08:44:07.358Z,27.19
2018-08-04T08:45:07.381Z,27.18
2018-08-04T08:46:07.335Z,27.10
2018-08-04T08:47:07.331Z,26.96
2018-08-04T08:48:07.318Z,27.11
2018-08-04T08:49:07.312Z,26.98
2018-08-04T08:50:07.322Z,26.92
2018-08-04T08:51:07.323Z,26.81
2018-08-04T08:52:07.277Z,26.97
2018-08-04T08:53:07.329Z,26.88
2018-08-04T08:54:07.423Z,26.92
2018-08-04T08:55:07.410Z,27.01
2018-08-04T08:56:07.222Z,27.18
2018-08-04T08:57:07.213Z,27.23
2018-08-04T08:58:07.198Z,27.64
2018-08-04T08:59:07.184Z,27.91
2018-08-04T09:00:07.210Z,27.83
2018-08-04T09:01:07.210Z,27.73
2018-08-04T09:02:07.154Z,27.90
2018-08-04T09:03:07.148Z,28.01
2018-08-04T09:04:07.127Z,28.49
2018-08-04T09:05:07.119Z,28.71
2018-08-04T09:06:07.146Z,28.57
2018-08-04T09:07:07.096Z,28.80
2018-08-04T09:08:07.104Z,29.06
2018-08-04T09:09:07.123Z,28.96
2018-08-04T09:10:07.066Z,28.92
2018-08-04T09:11:07.069Z,29.07
2018-08-04T09:12:07.059Z,29.06
2018-08-04T09:13:07.035Z,28.90
2018-08-04T09:14:07.072Z,28.89
2018-08-04T09:15:07.018Z,28.77
2018-08-04T09:16:07.008Z,28.74
2018-08-04T09:17:07.018Z,28.52
2018-08-04T09:18:06.986Z,28.64
2018-08-04T09:19:07.006Z,28.86
2018-08-04T09:20:06.969Z,29.03
2018-08-04T09:21:06.984Z,29.16
2018-08-04T09:22:06.978Z,29.43
2018-08-04T09:23:06.942Z,30.01
2018-08-04T09:24:06.921Z,29.96
2018-08-04T09:25:06.946Z,30.88
2018-08-04T09:26:06.905Z,30.92
2018-08-04T09:27:06.885Z,31.13
2018-08-04T09:28:06.908Z,31.85
2018-08-04T09:29:06.864Z,31.86
2018-08-04T09:30:06.866Z,31.74
2018-08-04T09:31:06.854Z,32.98
2018-08-04T09:32:06.869Z,33.47
2018-08-04T09:33:06.818Z,33.23
2018-08-04T09:34:06.862Z,32.93
2018-08-04T09:35:06.799Z,33.55
2018-08-04T09:36:06.784Z,33.85
2018-08-04T09:37:06.820Z,33.84
2018-08-04T09:38:06.820Z,33.82
2018-08-04T09:39:06.866Z,34.62
2018-08-04T09:40:06.748Z,35.19
2018-08-04T09:41:06.738Z,35.81
2018-08-04T09:42:06.726Z,36.24
2018-08-04T09:43:06.741Z,36.72
2018-08-04T09:44:06.701Z,37.18
2018-08-04T09:45:06.685Z,37.03
2018-08-04T09:46:06.682Z,37.28
2018-08-04T09:47:06.664Z,37.57
2018-08-04T09:48:06.696Z,37.90
2018-08-04T09:49:06.646Z,37.67
2018-08-04T09:50:06.640Z,37.54
2018-08-04T09:51:06.628Z,36.25
2018-08-04T09:52:06.611Z,35.81
2018-08-04T09:53:06.647Z,36.32
2018-08-04T09:54:06.597Z,37.00
2018-08-04T09:55:06.592Z,36.99
2018-08-04T09:56:06.574Z,36.55
2018-08-04T09:57:06.819Z,37.34
2018-08-04T09:58:06.585Z,37.36
2018-08-04T09:59:06.583Z,35.63
2018-08-04T10:00:06.530Z,33.19
2018-08-04T10:01:06.527Z,34.46
2018-08-04T10:02:06.518Z,33.58
2018-08-04T10:03:06.505Z,32.66
2018-08-04T10:04:06.523Z,31.37
2018-08-04T10:05:06.505Z,30.31
2018-08-04T10:06:06.468Z,29.96
2018-08-04T10:07:06.487Z,29.99
2018-08-04T10:08:06.453Z,29.73
2018-08-04T10:09:06.469Z,29.57
2018-08-04T10:10:06.432Z,29.31
2018-08-04T10:11:06.423Z,28.92
2018-08-04T10:12:06.407Z,28.77
2018-08-04T10:13:06.400Z,28.71
2018-08-04T10:14:06.432Z,29.12
2018-08-04T10:15:06.426Z,29.28
2018-08-04T10:16:06.388Z,29.50
2018-08-04T10:17:06.379Z,29.65
2018-08-04T10:18:06.360Z,30.10
2018-08-04T10:19:06.387Z,29.94
2018-08-04T10:20:06.346Z,30.01
2018-08-04T10:21:06.331Z,29.79
2018-08-04T10:22:06.351Z,29.52
2018-08-04T10:23:06.309Z,29.49
2018-08-04T10:24:06.346Z,29.57
2018-08-04T10:25:06.291Z,29.79
2018-08-04T10:26:06.384Z,30.27
2018-08-04T10:27:06.276Z,30.23
2018-08-04T10:28:06.266Z,30.29
2018-08-04T10:29:06.256Z,30.43
2018-08-04T10:30:06.249Z,30.27
2018-08-04T10:31:06.268Z,30.55
2018-08-04T10:32:06.334Z,30.16
2018-08-04T10:33:06.228Z,30.18
2018-08-04T10:34:06.210Z,30.13
2018-08-04T10:35:06.200Z,30.39
2018-08-04T10:36:06.240Z,30.06
2018-08-04T10:37:06.181Z,30.05
2018-08-04T10:38:06.175Z,30.26
2018-08-04T10:39:06.173Z,30.39
2018-08-04T10:40:06.150Z,30.70
2018-08-04T10:41:06.185Z,30.40
2018-08-04T10:42:06.143Z,30.36
2018-08-04T10:43:06.138Z,30.88
2018-08-04T10:44:06.135Z,30.98
2018-08-04T10:45:06.119Z,31.26
2018-08-04T10:46:06.126Z,31.36
2018-08-04T10:47:06.116Z,31.47
2018-08-04T10:48:06.073Z,31.26
2018-08-04T10:49:06.062Z,30.95
2018-08-04T10:50:06.062Z,30.93
2018-08-04T10:51:06.048Z,30.92
2018-08-04T10:52:06.067Z,31.13
2018-08-04T10:53:06.030Z,31.26
2018-08-04T10:54:06.023Z,31.45
2018-08-04T10:55:06.005Z,30.96
2018-08-04T10:56:06.003Z,30.95
2018-08-04T10:57:06.061Z,31.15
2018-08-04T10:58:05.986Z,31.48
2018-08-04T10:59:05.970Z,31.87
2018-08-04T11:00:05.967Z,31.73
2018-08-04T11:01:05.961Z,31.86
2018-08-04T11:02:05.994Z,31.86
2018-08-04T11:03:05.942Z,31.50
2018-08-04T11:04:05.931Z,30.62
2018-08-04T11:05:05.925Z,30.65
2018-08-04T11:06:05.907Z,30.76
2018-08-04T11:07:05.940Z,31.81
2018-08-04T11:08:05.900Z,31.36
2018-08-04T11:09:05.916Z,31.22
2018-08-04T11:10:05.881Z,30.24
2018-08-04T11:11:05.872Z,29.83
2018-08-04T11:12:05.869Z,29.64
2018-08-04T11:13:05.880Z,29.86
2018-08-04T11:14:05.890Z,30.33
2018-08-04T11:15:05.838Z,30.76
2018-08-04T11:16:05.827Z,30.39
2018-08-04T11:17:05.830Z,30.91
2018-08-04T11:18:05.855Z,31.35
2018-08-04T11:19:05.854Z,31.25
2018-08-04T11:20:05.790Z,30.95
2018-08-04T11:21:05.787Z,31.47
2018-08-04T11:22:05.773Z,31.55
2018-08-04T11:23:05.764Z,31.87
2018-08-04T11:24:05.860Z,31.77
2018-08-04T11:25:05.746Z,31.66
2018-08-04T11:26:05.742Z,31.85
2018-08-04T11:27:05.784Z,31.66
2018-08-04T11:28:05.751Z,31.54
2018-08-04T11:29:05.771Z,32.12
2018-08-04T11:30:05.746Z,32.26
2018-08-04T11:31:05.686Z,32.00
2018-08-04T11:32:05.676Z,31.87
2018-08-04T11:33:05.676Z,31.50
2018-08-04T11:34:05.666Z,32.08
2018-08-04T11:35:05.691Z,32.24
2018-08-04T11:36:05.652Z,31.72
2018-08-04T11:37:05.635Z,31.64
2018-08-04T11:38:05.625Z,31.62
2018-08-04T11:39:05.628Z,31.89
2018-08-04T11:40:05.643Z,32.02
2018-08-04T11:41:05.660Z,32.46
2018-08-04T11:42:05.605Z,32.23
2018-08-04T11:43:05.584Z,32.66
2018-08-04T11:44:05.582Z,32.39
2018-08-04T11:45:05.562Z,32.60
2018-08-04T11:46:05.589Z,32.79
2018-08-04T11:47:05.546Z,32.71
2018-08-04T11:48:05.544Z,33.22
2018-08-04T11:49:05.514Z,32.71
2018-08-04T11:50:05.506Z,33.05
2018-08-04T11:51:05.548Z,33.17
2018-08-04T11:52:05.497Z,33.76
2018-08-04T11:53:05.485Z,33.51
2018-08-04T11:54:05.479Z,33.17
2018-08-04T11:55:05.465Z,33.84
2018-08-04T11:56:05.493Z,34.33
2018-08-04T11:57:05.456Z,35.01
2018-08-04T11:58:05.437Z,34.86
2018-08-04T11:59:05.479Z,35.13
2018-08-04T12:00:05.426Z,35.01
2018-08-04T12:01:05.415Z,34.96
2018-08-04T12:02:05.475Z,35.53
2018-08-04T12:03:05.395Z,35.59
2018-08-04T12:04:05.425Z,35.20
2018-08-04T12:05:05.374Z,35.69
2018-08-04T12:06:05.397Z,36.03
2018-08-04T12:07:05.364Z,36.65
2018-08-04T12:08:05.352Z,36.97
2018-08-04T12:09:05.372Z,36.67
2018-08-04T12:10:05.339Z,36.82
2018-08-04T12:11:05.362Z,36.67
2018-08-04T12:12:05.311Z,36.99
2018-08-04T12:13:05.347Z,36.78
2018-08-04T12:14:05.311Z,36.75
2018-08-04T12:15:05.288Z,37.38
2018-08-04T12:16:05.278Z,36.96
2018-08-04T12:17:05.265Z,36.57
2018-08-04T12:18:05.369Z,36.80
2018-08-04T12:19:05.297Z,37.33
2018-08-04T12:20:05.399Z,36.16
2018-08-04T12:21:05.250Z,38.10
2018-08-04T12:22:05.351Z,37.98
2018-08-04T12:23:05.216Z,36.48
2018-08-04T12:24:05.258Z,34.85
2018-08-04T12:25:05.208Z,34.06
2018-08-04T12:26:05.224Z,33.72
2018-08-04T12:27:05.184Z,33.53
2018-08-04T12:28:05.192Z,33.60
2018-08-04T12:29:05.210Z,33.45
2018-08-04T12:30:05.160Z,32.98
2018-08-04T12:31:05.147Z,32.85
2018-08-04T12:32:05.147Z,32.85
2018-08-04T12:33:05.126Z,33.13
2018-08-04T12:34:05.167Z,33.26
2018-08-04T12:35:05.114Z,33.26
2018-08-04T12:36:05.103Z,33.22
2018-08-04T12:37:05.090Z,32.85
2018-08-04T12:38:05.094Z,32.76
2018-08-04T12:39:05.112Z,32.59
2018-08-04T12:40:05.058Z,32.51
2018-08-04T12:41:05.052Z,32.19
2018-08-04T12:42:05.040Z,32.20
2018-08-04T12:43:05.037Z,32.49
2018-08-04T12:44:05.074Z,32.72
2018-08-04T12:45:05.019Z,32.71
2018-08-04T12:46:04.999Z,32.82
2018-08-04T12:47:04.996Z,32.67
2018-08-04T12:48:04.988Z,32.59
2018-08-04T12:49:05.037Z,32.53
2018-08-04T12:50:04.964Z,32.59
2018-08-04T12:51:04.958Z,32.93
2018-08-04T12:52:04.945Z,33.01